Drummond Island, MI

8:58 AM EDT on August 05, 2015 (GMT -0400)
Potagannissing Bay Front | | Change Station
CLOSE
Current Station
Personal Weather Station
Location: Drummond Island, MI
Elevation: 587 ft
Nearby Weather Stations

Elev 587 ft 46.06 °N, 83.67 °W | Updated 17 seconds ago

Clear
Clear
57.5 °F
Feels Like 57.5 °F
N
6.0
Wind Variable Wind from NW
Gusts 12.0 mph

Today
High -- | Low -- °F
--% Chance of Precip.
Yesterday
High -- | Low -- °F
Precip. -- in
6:21 AM 8:59 PM
Waning Gibbous, 67% visible
Pressure 30.04 in
Visibility 10.0 miles
Clouds Clear
Dew Point 54 °F
Humidity 88%
Rainfall 0.00 in
Snow Depth Not available.
UV 2 out of 12
Pollen 6.90 out of 12
Air Quality Not available.
Flu Activity Not available.
METAR KDRM 051254Z AUTO 30004KT 10SM CLR 15/12 A3004 RMK AO2 T01490117

More Conditions Fewer Conditions

Pressure 30.04 in
Visibility 10.0 miles
Clouds Clear
Dew Point 54 °F
Humidity 88%
Rainfall 0.00 in
Snow Depth Not available.
UV 2 out of 12
Pollen 6.90 out of 12
Air Quality Not available.
Flu Activity Not available.
METAR KDRM 051254Z AUTO 30004KT 10SM CLR 15/12 A3004 RMK AO2 T01490117

More Conditions Fewer Conditions

Nowcast | as of 7:00 am EDT on August 5, 2015

At 8 am...mostly clear. Temperature 54. Northwest winds 7 mph. At 10 am...mostly clear. Temperature 58. Northwest winds 8 mph. At 12 PM...partly cloudy. Temperature 63. Northwest winds 12 mph. At 2 PM...mostly clear. Temperature 66. Northwest winds 14 mph.

×

10-Day Weather Forecast

×

Almanac

Astronomy

Aug. 05, 2015 Rise Set
Actual Time
Civil Twilight
Nautical Twilight
Astronomical Twilight
Moon
Length of Visible Light
Length of Day
Tomorrow will be .
, % of the Moon is Illuminated

Today's Extremes

State Highs State Lows

Community

WunderPhotos

Upload Photos

1,844,175 photos uploaded!

WunderBlogs® & News

Nearby

Air Quality

  Air Quality AQ Index Pollutant
Not available.

Snow Depth

Station Depth Elevation

Earthquake Activity

City Distance Mag. Time & Date
Minimum magnitude displayed is 2.5.

Coastal Water Temperatures

Place Temperature

Stations

Nearby Weather Stations

Station Location Temp. Windchill Dew Point Humidity Wind Precip. Elev Updated Type